createdAt,value
2022-07-28T00:00:15.839Z,344.78
2022-07-28T00:01:03.034Z,318.66
2022-07-28T00:01:45.812Z,324.44
2022-07-28T00:02:31.019Z,331.22
2022-07-28T00:03:15.748Z,334.13
2022-07-28T00:04:00.933Z,336.06
2022-07-28T00:04:45.962Z,343.81
2022-07-28T00:05:31.101Z,344.84
2022-07-28T00:06:16.114Z,335.23
2022-07-28T00:07:01.129Z,335.09
2022-07-28T00:07:46.288Z,349.62
2022-07-28T00:08:31.249Z,361.24
2022-07-28T00:09:16.303Z,354.46
2022-07-28T00:10:01.406Z,364.15
2022-07-28T00:10:46.432Z,363.18
2022-07-28T00:11:31.466Z,354.46
2022-07-28T00:12:16.526Z,367.05
2022-07-28T00:13:01.678Z,352.53
2022-07-28T00:13:46.634Z,368.02
2022-07-28T00:14:31.587Z,343.81
2022-07-28T00:15:16.641Z,349.62
2022-07-28T00:16:01.926Z,364.15
2022-07-28T00:16:46.817Z,341.87
2022-07-28T00:17:31.604Z,328.31
2022-07-28T00:18:16.681Z,341.87
2022-07-28T00:19:01.885Z,338.00
2022-07-28T00:19:46.986Z,317.66
2022-07-28T00:20:32.038Z,338.00
2022-07-28T00:21:17.065Z,343.81
2022-07-28T00:22:02.065Z,336.06
2022-07-28T00:22:47.104Z,346.72
2022-07-28T00:23:39.250Z,354.46
2022-07-28T00:24:17.315Z,351.56
2022-07-28T00:25:02.571Z,379.64
2022-07-28T00:25:47.231Z,360.27
2022-07-28T00:26:32.392Z,358.34
2022-07-28T00:27:19.033Z,374.80
2022-07-28T00:28:02.598Z,351.56
2022-07-28T00:28:47.455Z,340.90
2022-07-28T00:29:49.167Z,361.24
2022-07-28T00:30:17.470Z,338.52
2022-07-28T00:31:05.029Z,340.90
2022-07-28T00:31:47.514Z,337.03
2022-07-28T00:32:32.444Z,327.35
2022-07-28T00:33:17.485Z,344.78
2022-07-28T00:34:02.536Z,345.75
2022-07-28T00:34:47.595Z,348.65
2022-07-28T00:35:32.657Z,337.03
2022-07-28T00:36:17.709Z,353.49
2022-07-28T00:37:02.785Z,331.22
2022-07-28T00:37:47.722Z,339.94
2022-07-28T00:38:32.949Z,343.81
2022-07-28T00:39:17.832Z,325.41
2022-07-28T00:40:02.995Z,325.41
2022-07-28T00:40:48.053Z,319.60
2022-07-28T00:41:33.108Z,309.91
2022-07-28T00:42:18.022Z,351.56
2022-07-28T00:43:03.218Z,329.28
2022-07-28T00:43:48.169Z,345.75
2022-07-28T00:44:33.433Z,337.03
2022-07-28T00:45:18.390Z,338.97
2022-07-28T00:46:03.497Z,342.84
2022-07-28T00:46:48.480Z,340.90
2022-07-28T00:47:34.229Z,328.31
2022-07-28T00:48:18.614Z,349.62
2022-07-28T00:49:03.715Z,343.81
2022-07-28T00:49:48.729Z,318.63
2022-07-28T00:50:33.820Z,305.07
2022-07-28T00:51:18.845Z,333.16
2022-07-28T00:52:04.511Z,318.63
2022-07-28T00:52:49.055Z,334.13
2022-07-28T00:53:34.116Z,322.50
2022-07-28T00:54:19.171Z,308.26
2022-07-28T00:55:04.536Z,339.94
2022-07-28T00:56:05.920Z,293.45
2022-07-28T00:56:34.342Z,345.75
2022-07-28T00:57:19.393Z,333.16
2022-07-28T00:58:04.551Z,324.34
2022-07-28T00:58:49.428Z,340.90
2022-07-28T00:59:34.564Z,342.84
2022-07-28T01:00:19.624Z,330.25
2022-07-28T01:01:04.786Z,368.02
2022-07-28T01:01:49.906Z,358.34
2022-07-28T01:02:34.977Z,350.59
2022-07-28T01:03:19.848Z,350.59
2022-07-28T01:04:04.946Z,343.81
2022-07-28T01:04:49.882Z,349.62
2022-07-28T01:05:43.243Z,353.65
2022-07-28T01:06:20.524Z,357.37
2022-07-28T01:07:05.030Z,351.56
2022-07-28T01:07:50.084Z,337.03
2022-07-28T01:08:35.141Z,332.85
2022-07-28T01:09:20.198Z,331.22
2022-07-28T01:10:05.251Z,340.90
2022-07-28T01:10:50.414Z,324.44
2022-07-28T01:11:42.751Z,338.00
2022-07-28T01:12:20.422Z,354.46
2022-07-28T01:13:05.272Z,348.65
2022-07-28T01:13:50.427Z,350.59
2022-07-28T01:14:35.432Z,328.12
2022-07-28T01:15:20.647Z,345.75
2022-07-28T01:16:05.762Z,356.49
2022-07-28T01:16:50.623Z,324.44
2022-07-28T01:17:35.711Z,329.28
2022-07-28T01:18:20.767Z,338.97
2022-07-28T01:19:05.741Z,330.25
2022-07-28T01:19:50.781Z,326.38
2022-07-28T01:20:35.835Z,344.78
2022-07-28T01:21:21.003Z,332.19
2022-07-28T01:22:05.949Z,331.22
2022-07-28T01:22:51.006Z,337.03
2022-07-28T01:23:36.063Z,334.13
2022-07-28T01:24:21.121Z,344.78
2022-07-28T01:25:06.066Z,327.35
2022-07-28T01:25:51.240Z,327.35
2022-07-28T01:26:36.293Z,334.13
2022-07-28T01:27:21.348Z,350.59
2022-07-28T01:28:06.403Z,344.78
2022-07-28T01:28:51.351Z,345.75
2022-07-28T01:29:36.510Z,336.06
2022-07-28T01:30:21.567Z,343.81
2022-07-28T01:31:06.665Z,365.12
2022-07-28T01:31:51.790Z,365.12
2022-07-28T01:32:36.741Z,353.49
2022-07-28T01:33:21.794Z,335.68
2022-07-28T01:34:06.850Z,362.21
2022-07-28T01:34:51.845Z,356.40
2022-07-28T01:35:37.067Z,335.09
2022-07-28T01:36:21.965Z,341.87
2022-07-28T01:37:07.179Z,344.27
2022-07-28T01:37:52.134Z,369.96
2022-07-28T01:38:37.191Z,367.05
2022-07-28T01:39:22.110Z,338.97
2022-07-28T01:40:07.305Z,323.47
2022-07-28T01:40:52.239Z,320.57
2022-07-28T01:41:37.411Z,339.94
2022-07-28T01:42:22.376Z,334.13
2022-07-28T01:43:07.421Z,361.24
2022-07-28T01:43:52.485Z,323.47
2022-07-28T01:44:37.439Z,333.16
2022-07-28T01:45:22.494Z,336.06
2022-07-28T01:46:07.447Z,338.00
2022-07-28T01:46:52.658Z,354.46
2022-07-28T01:47:37.662Z,324.44
2022-07-28T01:48:22.640Z,334.13
2022-07-28T01:49:07.720Z,347.68
2022-07-28T01:49:52.843Z,334.13
2022-07-28T01:50:37.888Z,354.46
2022-07-28T01:51:22.949Z,315.72
2022-07-28T01:52:08.003Z,320.57
2022-07-28T01:52:53.054Z,338.00
2022-07-28T01:53:38.327Z,329.28
2022-07-28T01:54:23.167Z,333.16
2022-07-28T01:55:08.274Z,337.03
2022-07-28T01:55:53.287Z,323.39
2022-07-28T01:56:38.355Z,364.15
2022-07-28T01:57:23.410Z,338.00
2022-07-28T01:58:08.317Z,342.84
2022-07-28T01:58:53.612Z,355.43
2022-07-28T01:59:38.671Z,362.21
2022-07-28T02:00:23.729Z,360.27
2022-07-28T02:01:08.806Z,348.65
2022-07-28T02:01:53.769Z,341.87
2022-07-28T02:02:38.900Z,357.37
2022-07-28T02:03:24.048Z,357.37
2022-07-28T02:04:09.006Z,338.97
2022-07-28T02:04:54.098Z,375.77
2022-07-28T02:05:39.133Z,371.90
2022-07-28T02:06:24.181Z,350.59
2022-07-28T02:07:09.238Z,379.64
2022-07-28T02:07:54.398Z,359.31
2022-07-28T02:08:39.344Z,370.93
2022-07-28T02:09:24.508Z,360.27
2022-07-28T02:10:09.693Z,362.21
2022-07-28T02:10:54.597Z,360.27
2022-07-28T02:11:39.569Z,380.61
2022-07-28T02:12:24.626Z,350.93
2022-07-28T02:13:09.595Z,350.59
2022-07-28T02:13:54.633Z,367.05
2022-07-28T02:14:39.796Z,366.09
2022-07-28T02:15:24.853Z,366.09
2022-07-28T02:16:09.975Z,332.19
2022-07-28T02:16:54.982Z,338.00
2022-07-28T02:17:40.025Z,352.53
2022-07-28T02:18:25.108Z,348.65
2022-07-28T02:19:10.240Z,344.78
2022-07-28T02:19:55.291Z,347.68
2022-07-28T02:20:40.349Z,361.24
2022-07-28T02:21:25.402Z,367.05
2022-07-28T02:22:10.464Z,334.74
2022-07-28T02:22:55.523Z,353.49
2022-07-28T02:23:40.472Z,368.02
2022-07-28T02:24:25.732Z,366.09
2022-07-28T02:25:10.692Z,355.43
2022-07-28T02:25:55.743Z,355.43
2022-07-28T02:26:40.799Z,367.05
2022-07-28T02:27:26.947Z,368.99
2022-07-28T02:28:10.915Z,354.46
2022-07-28T02:28:55.971Z,342.84
2022-07-28T02:29:50.737Z,358.34
2022-07-28T02:30:26.080Z,375.77
2022-07-28T02:31:11.206Z,353.49
2022-07-28T02:31:56.301Z,348.65
2022-07-28T02:32:41.291Z,338.00
2022-07-28T02:33:59.847Z,339.94
2022-07-28T02:34:11.517Z,358.34
2022-07-28T02:34:56.624Z,333.16
2022-07-28T02:35:41.578Z,331.22
2022-07-28T02:36:26.637Z,330.25
2022-07-28T02:37:11.693Z,326.38
2022-07-28T02:37:56.750Z,347.68
2022-07-28T02:38:41.804Z,333.16
2022-07-28T02:39:26.760Z,363.18
2022-07-28T02:40:11.824Z,320.57
2022-07-28T02:40:56.975Z,338.97
2022-07-28T02:41:42.034Z,342.84
2022-07-28T02:42:27.091Z,333.16
2022-07-28T02:43:12.143Z,349.62
2022-07-28T02:43:57.200Z,331.22
2022-07-28T02:44:42.365Z,320.57
2022-07-28T02:45:27.415Z,349.62
2022-07-28T02:46:12.393Z,350.59
2022-07-28T02:46:57.430Z,345.75
2022-07-28T02:47:42.480Z,340.90
2022-07-28T02:48:27.537Z,382.55
2022-07-28T02:49:12.622Z,368.99
2022-07-28T02:49:57.794Z,358.34
2022-07-28T02:50:42.809Z,355.41
2022-07-28T02:51:27.766Z,357.37
2022-07-28T02:52:12.820Z,362.21
2022-07-28T02:52:57.893Z,374.80
2022-07-28T02:53:42.937Z,365.12
2022-07-28T02:54:28.007Z,351.56
2022-07-28T02:55:12.932Z,359.25
2022-07-28T02:55:58.227Z,347.72
2022-07-28T02:56:53.583Z,356.40
2022-07-28T02:57:28.123Z,364.15
2022-07-28T02:58:13.283Z,366.09
2022-07-28T02:58:58.588Z,348.68
2022-07-28T02:59:43.386Z,344.78
2022-07-28T03:00:28.342Z,374.80
2022-07-28T03:01:13.440Z,374.80
2022-07-28T03:01:58.553Z,347.68
2022-07-28T03:02:43.505Z,349.62
2022-07-28T03:03:28.566Z,345.75
2022-07-28T03:04:13.768Z,356.40
2022-07-28T03:04:59.123Z,369.96
2022-07-28T03:05:43.636Z,371.90
2022-07-28T03:06:29.136Z,369.96
2022-07-28T03:07:13.848Z,362.13
2022-07-28T03:07:59.026Z,378.68
2022-07-28T03:08:43.957Z,368.99
2022-07-28T03:09:29.013Z,372.70
2022-07-28T03:10:14.076Z,353.49
2022-07-28T03:10:59.177Z,370.93
2022-07-28T03:11:44.184Z,349.62
2022-07-28T03:12:29.140Z,355.41
2022-07-28T03:13:14.196Z,369.96
2022-07-28T03:13:59.453Z,328.31
2022-07-28T03:14:52.107Z,388.36
2022-07-28T03:15:29.258Z,356.37
2022-07-28T03:16:14.343Z,365.12
2022-07-28T03:16:59.433Z,369.96
2022-07-28T03:17:44.344Z,348.65
2022-07-28T03:18:29.490Z,360.27
2022-07-28T03:19:14.545Z,358.34
2022-07-28T03:19:59.712Z,352.53
2022-07-28T03:20:44.658Z,367.05
2022-07-28T03:21:29.715Z,362.21
2022-07-28T03:22:14.875Z,356.40
2022-07-28T03:22:59.926Z,363.18
2022-07-28T03:23:44.890Z,354.60
2022-07-28T03:24:29.938Z,368.85
2022-07-28T03:25:14.915Z,364.05
2022-07-28T03:26:00.057Z,352.52
2022-07-28T03:26:45.113Z,368.85
2022-07-28T03:27:30.165Z,350.81
2022-07-28T03:28:15.149Z,365.01
2022-07-28T03:29:00.278Z,372.70
2022-07-28T03:29:45.235Z,371.73
2022-07-28T03:30:30.345Z,349.64
2022-07-28T03:31:15.381Z,376.54
2022-07-28T03:32:00.324Z,370.77
2022-07-28T03:32:45.459Z,372.70
2022-07-28T03:33:30.518Z,379.42
2022-07-28T03:34:15.801Z,365.97
2022-07-28T03:35:00.735Z,364.05
2022-07-28T03:35:45.478Z,365.01
2022-07-28T03:36:30.637Z,365.12
2022-07-28T03:37:15.690Z,378.68
2022-07-28T03:38:00.860Z,375.77
2022-07-28T03:38:45.806Z,364.05
2022-07-28T03:39:32.467Z,365.12
2022-07-28T03:40:15.748Z,369.96
2022-07-28T03:41:00.985Z,365.12
2022-07-28T03:41:45.969Z,370.93
2022-07-28T03:42:31.090Z,372.86
2022-07-28T03:43:16.142Z,378.68
2022-07-28T03:44:01.198Z,361.24
2022-07-28T03:44:46.176Z,368.02
2022-07-28T03:45:31.108Z,364.15
2022-07-28T03:46:16.219Z,369.96
2022-07-28T03:47:01.323Z,374.80
2022-07-28T03:47:46.390Z,360.27
2022-07-28T03:48:31.438Z,351.56
2022-07-28T03:49:16.529Z,372.86
2022-07-28T03:50:01.553Z,346.72
2022-07-28T03:50:46.607Z,366.09
2022-07-28T03:51:31.694Z,373.83
2022-07-28T03:52:16.671Z,375.77
2022-07-28T03:53:01.883Z,362.13
2022-07-28T03:53:46.962Z,374.80
2022-07-28T03:54:31.888Z,368.99
2022-07-28T03:55:16.944Z,360.21
2022-07-28T03:56:02.207Z,363.09
2022-07-28T03:56:47.124Z,338.12
2022-07-28T03:57:32.011Z,358.29
2022-07-28T03:58:17.173Z,380.38
2022-07-28T03:59:02.225Z,364.05
2022-07-28T03:59:47.286Z,364.05
2022-07-28T04:00:32.342Z,378.46
2022-07-28T04:01:17.444Z,382.30
2022-07-28T04:02:02.510Z,350.60
2022-07-28T04:02:47.562Z,353.48
2022-07-28T04:03:43.193Z,351.56
2022-07-28T04:04:17.933Z,364.05
2022-07-28T04:05:02.890Z,362.13
2022-07-28T04:05:47.585Z,355.41
2022-07-28T04:06:32.586Z,354.44
2022-07-28T04:07:17.683Z,369.81
2022-07-28T04:08:02.906Z,356.49
2022-07-28T04:08:47.755Z,354.44
2022-07-28T04:09:32.916Z,341.96
2022-07-28T04:10:17.868Z,390.95
2022-07-28T04:11:03.028Z,360.21
2022-07-28T04:11:48.004Z,348.68
2022-07-28T04:12:33.036Z,374.62
2022-07-28T04:13:17.989Z,369.81
2022-07-28T04:14:03.151Z,376.54
2022-07-28T04:14:48.009Z,346.76
2022-07-28T04:15:33.261Z,370.77
2022-07-28T04:16:18.343Z,369.81
2022-07-28T04:17:03.433Z,373.66
2022-07-28T04:17:48.480Z,357.33
2022-07-28T04:18:33.593Z,358.29
2022-07-28T04:19:18.417Z,370.77
2022-07-28T04:20:03.601Z,369.81
2022-07-28T04:20:48.657Z,371.73
2022-07-28T04:21:33.716Z,362.16
2022-07-28T04:22:18.808Z,375.58
2022-07-28T04:23:03.926Z,376.54
2022-07-28T04:23:48.884Z,381.34
2022-07-28T04:24:33.938Z,374.62
2022-07-28T04:25:19.103Z,353.48
2022-07-28T04:26:04.052Z,381.34
2022-07-28T04:26:49.099Z,361.17
2022-07-28T04:27:34.063Z,348.68
2022-07-28T04:28:19.223Z,375.58
2022-07-28T04:29:04.379Z,344.20
2022-07-28T04:29:49.346Z,363.09
2022-07-28T04:30:34.551Z,355.41
2022-07-28T04:31:19.458Z,365.01
2022-07-28T04:32:04.918Z,372.70
2022-07-28T04:32:49.764Z,360.21
2022-07-28T04:33:35.276Z,368.85
2022-07-28T04:34:19.774Z,361.17
2022-07-28T04:35:05.039Z,361.17
2022-07-28T04:35:49.994Z,364.05
2022-07-28T04:36:34.946Z,346.76
2022-07-28T04:37:20.004Z,360.21
2022-07-28T04:38:05.168Z,369.81
2022-07-28T04:38:50.114Z,365.01
2022-07-28T04:39:35.172Z,346.76
2022-07-28T04:40:20.112Z,355.41
2022-07-28T04:41:05.390Z,367.89
2022-07-28T04:41:50.358Z,374.62
2022-07-28T04:42:35.395Z,377.50
2022-07-28T04:43:20.414Z,362.13
2022-07-28T04:44:05.509Z,351.56
2022-07-28T04:44:50.562Z,359.25
2022-07-28T04:45:35.650Z,364.05
2022-07-28T04:46:20.844Z,373.66
2022-07-28T04:47:06.414Z,373.66
2022-07-28T04:47:50.582Z,387.10
2022-07-28T04:48:35.913Z,368.85
2022-07-28T04:49:20.979Z,384.22
2022-07-28T04:50:05.958Z,378.46
2022-07-28T04:50:51.015Z,365.97
2022-07-28T04:51:36.173Z,369.81
2022-07-28T04:52:21.128Z,388.06
2022-07-28T04:53:06.183Z,384.22
2022-07-28T04:53:51.243Z,371.73
2022-07-28T04:54:36.320Z,386.14
2022-07-28T04:55:21.466Z,353.48
2022-07-28T04:56:06.414Z,356.37
2022-07-28T04:56:51.494Z,360.21
2022-07-28T04:57:36.613Z,368.85
2022-07-28T04:58:22.659Z,375.58
2022-07-28T04:59:06.529Z,382.30
2022-07-28T04:59:51.799Z,379.42
2022-07-28T05:00:36.857Z,358.29
2022-07-28T05:01:22.035Z,355.41
2022-07-28T05:02:06.966Z,366.93
2022-07-28T05:02:52.032Z,376.54
2022-07-28T05:03:37.087Z,346.76
2022-07-28T05:04:22.198Z,370.77
2022-07-28T05:05:07.265Z,364.05
2022-07-28T05:05:54.690Z,364.05
2022-07-28T05:06:37.304Z,380.38
2022-07-28T05:07:22.465Z,369.81
2022-07-28T05:08:07.458Z,379.42
2022-07-28T05:08:52.578Z,367.89
2022-07-28T05:09:37.404Z,352.52
2022-07-28T05:10:22.611Z,361.17
2022-07-28T05:11:07.561Z,352.52
2022-07-28T05:11:52.594Z,356.37
2022-07-28T05:12:37.654Z,349.64
2022-07-28T05:13:22.663Z,357.33
2022-07-28T05:14:07.662Z,361.17
2022-07-28T05:14:52.821Z,357.33
2022-07-28T05:15:37.882Z,365.01
2022-07-28T05:16:22.919Z,360.21
2022-07-28T05:17:07.997Z,368.85
2022-07-28T05:17:53.053Z,365.01
2022-07-28T05:18:38.296Z,363.09
2022-07-28T05:19:23.165Z,350.60
2022-07-28T05:20:08.333Z,359.25
2022-07-28T05:20:53.392Z,365.01
2022-07-28T05:21:38.435Z,364.05
2022-07-28T05:22:23.393Z,343.88
2022-07-28T05:23:08.575Z,380.38
2022-07-28T05:23:53.506Z,342.92
2022-07-28T05:24:38.559Z,370.77
2022-07-28T05:25:23.617Z,372.70
2022-07-28T05:26:08.698Z,365.01
2022-07-28T05:26:53.725Z,347.72
2022-07-28T05:27:38.777Z,381.34
2022-07-28T05:28:23.840Z,367.89
2022-07-28T05:29:08.900Z,363.09
2022-07-28T05:29:54.054Z,363.09
2022-07-28T05:30:39.109Z,361.17
2022-07-28T05:31:24.106Z,361.17
2022-07-28T05:32:16.401Z,388.06
2022-07-28T05:32:54.077Z,381.34
2022-07-28T05:33:39.077Z,391.91
2022-07-28T05:34:24.291Z,381.34
2022-07-28T05:35:09.247Z,369.81
2022-07-28T05:35:54.295Z,370.67
2022-07-28T05:36:39.367Z,350.60
2022-07-28T05:37:24.415Z,359.25
2022-07-28T05:38:10.752Z,354.44
2022-07-28T05:38:54.527Z,360.21
2022-07-28T05:39:39.508Z,345.80
2022-07-28T05:40:24.535Z,360.21
2022-07-28T05:41:09.594Z,360.21
2022-07-28T05:41:55.006Z,352.52
2022-07-28T05:42:39.706Z,358.29
2022-07-28T05:43:24.658Z,361.17
2022-07-28T05:44:09.719Z,365.01
2022-07-28T05:44:54.770Z,356.37
2022-07-28T05:45:39.863Z,367.89
2022-07-28T05:46:24.949Z,361.17
2022-07-28T05:47:10.056Z,359.25
2022-07-28T05:47:55.103Z,370.77
2022-07-28T05:48:40.104Z,373.66
2022-07-28T05:49:25.280Z,363.09
2022-07-28T05:50:10.273Z,352.52
2022-07-28T05:50:55.131Z,373.66
2022-07-28T05:51:41.801Z,367.89
2022-07-28T05:52:25.131Z,356.49
2022-07-28T05:53:10.297Z,368.85
2022-07-28T05:53:55.354Z,371.73
2022-07-28T05:54:40.402Z,370.77
2022-07-28T05:55:25.469Z,368.85
2022-07-28T05:56:10.517Z,358.38
2022-07-28T05:56:55.573Z,362.13
2022-07-28T05:57:40.633Z,363.11
2022-07-28T05:58:25.704Z,363.09
2022-07-28T05:59:10.765Z,370.77
2022-07-28T05:59:55.698Z,355.41
2022-07-28T06:00:40.811Z,353.48
2022-07-28T06:01:25.871Z,377.50
2022-07-28T06:02:10.933Z,385.18
2022-07-28T06:02:55.921Z,370.77
2022-07-28T06:03:42.587Z,370.77
2022-07-28T06:04:27.248Z,360.21
2022-07-28T06:05:11.091Z,395.75
2022-07-28T06:06:00.715Z,356.37
2022-07-28T06:06:41.233Z,363.09
2022-07-28T06:07:43.172Z,372.70
2022-07-28T06:08:11.365Z,360.21
2022-07-28T06:08:56.167Z,354.60
2022-07-28T06:09:44.884Z,366.93
2022-07-28T06:10:26.490Z,366.93
2022-07-28T06:11:11.352Z,343.88
2022-07-28T06:11:56.245Z,368.85
2022-07-28T06:12:41.568Z,370.77
2022-07-28T06:13:26.505Z,357.33
2022-07-28T06:14:11.976Z,375.58
2022-07-28T06:14:56.627Z,374.62
2022-07-28T06:15:41.674Z,376.54
2022-07-28T06:16:26.691Z,378.46
2022-07-28T06:17:11.796Z,376.54
2022-07-28T06:17:56.856Z,351.56
2022-07-28T06:18:41.917Z,357.43
2022-07-28T06:19:26.958Z,367.89
2022-07-28T06:20:12.023Z,385.18
2022-07-28T06:20:57.186Z,378.46
2022-07-28T06:21:42.127Z,359.25
2022-07-28T06:22:27.128Z,370.77
2022-07-28T06:23:12.131Z,366.93
2022-07-28T06:23:57.199Z,366.89
2022-07-28T06:24:42.252Z,377.50
2022-07-28T06:25:27.311Z,366.93
2022-07-28T06:26:12.469Z,375.58
2022-07-28T06:26:57.416Z,368.85
2022-07-28T06:27:42.475Z,361.17
2022-07-28T06:28:27.533Z,360.21
2022-07-28T06:29:12.625Z,377.50
2022-07-28T06:29:57.752Z,369.81
2022-07-28T06:30:42.694Z,373.66
2022-07-28T06:31:27.937Z,375.58
2022-07-28T06:32:12.778Z,354.44
2022-07-28T06:32:57.870Z,355.41
2022-07-28T06:33:42.930Z,377.50
2022-07-28T06:34:27.978Z,378.46
2022-07-28T06:35:13.039Z,371.73
2022-07-28T06:35:58.278Z,365.97
2022-07-28T06:36:43.259Z,373.66
2022-07-28T06:37:28.076Z,375.58
2022-07-28T06:38:13.258Z,379.42
2022-07-28T06:38:58.396Z,369.81
2022-07-28T06:39:43.273Z,364.05
2022-07-28T06:40:28.433Z,372.70
2022-07-28T06:41:13.494Z,387.10
2022-07-28T06:41:58.707Z,369.81
2022-07-28T06:42:43.499Z,374.62
2022-07-28T06:43:28.562Z,358.29
2022-07-28T06:44:13.828Z,363.09
2022-07-28T06:44:59.703Z,375.58
2022-07-28T06:45:43.727Z,374.62
2022-07-28T06:46:28.808Z,382.30
2022-07-28T06:47:13.930Z,371.73
2022-07-28T06:47:59.049Z,370.77
2022-07-28T06:48:44.079Z,383.26
2022-07-28T06:49:28.945Z,361.17
2022-07-28T06:50:26.151Z,382.30
2022-07-28T06:50:59.233Z,364.05
2022-07-28T06:51:44.078Z,376.54
2022-07-28T06:52:29.052Z,377.50
2022-07-28T06:53:14.295Z,381.34
2022-07-28T06:53:59.345Z,387.10
2022-07-28T06:54:48.877Z,377.50
2022-07-28T06:55:35.089Z,387.10
2022-07-28T06:56:15.750Z,376.54
2022-07-28T06:56:59.387Z,374.62
2022-07-28T06:57:44.630Z,383.26
2022-07-28T06:58:29.529Z,367.89
2022-07-28T06:59:14.941Z,361.17
2022-07-28T06:59:59.948Z,384.22
2022-07-28T07:00:44.825Z,379.42
2022-07-28T07:01:29.774Z,374.62
2022-07-28T07:02:14.865Z,399.59
2022-07-28T07:03:00.874Z,376.54
2022-07-28T07:03:45.096Z,378.46
2022-07-28T07:04:30.086Z,375.58
2022-07-28T07:05:15.092Z,368.85
2022-07-28T07:06:00.228Z,366.93
2022-07-28T07:06:45.217Z,371.73
2022-07-28T07:07:30.152Z,363.09
2022-07-28T07:08:15.497Z,355.41
2022-07-28T07:09:00.378Z,379.42
2022-07-28T07:09:45.433Z,371.73
2022-07-28T07:10:30.489Z,361.22
2022-07-28T07:11:15.461Z,382.30
2022-07-28T07:12:00.598Z,363.09
2022-07-28T07:12:45.468Z,379.42
2022-07-28T07:13:30.646Z,403.43
2022-07-28T07:14:16.155Z,374.62
2022-07-28T07:15:00.850Z,388.06
2022-07-28T07:15:45.923Z,375.58
2022-07-28T07:16:31.124Z,397.67
2022-07-28T07:17:16.104Z,386.14
2022-07-28T07:18:01.115Z,369.81
2022-07-28T07:18:46.106Z,381.34
2022-07-28T07:19:31.112Z,376.54
2022-07-28T07:20:16.620Z,376.54
2022-07-28T07:21:01.381Z,386.14
2022-07-28T07:21:46.378Z,367.89
2022-07-28T07:22:31.391Z,363.09
2022-07-28T07:23:16.348Z,387.10
2022-07-28T07:24:01.500Z,372.70
2022-07-28T07:24:46.458Z,376.54
2022-07-28T07:25:31.467Z,389.99
2022-07-28T07:26:16.582Z,370.77
2022-07-28T07:27:01.748Z,370.77
2022-07-28T07:27:46.583Z,393.83
2022-07-28T07:28:31.645Z,372.70
2022-07-28T07:29:16.794Z,368.85
2022-07-28T07:30:01.747Z,370.77
2022-07-28T07:30:46.799Z,379.42
2022-07-28T07:31:31.894Z,361.17
2022-07-28T07:32:16.951Z,374.62
2022-07-28T07:33:02.078Z,364.05
2022-07-28T07:33:47.136Z,390.95
2022-07-28T07:34:32.127Z,369.81
2022-07-28T07:35:17.146Z,371.73
2022-07-28T07:36:02.402Z,373.66
2022-07-28T07:36:47.368Z,365.97
2022-07-28T07:37:32.187Z,370.77
2022-07-28T07:38:17.509Z,356.37
2022-07-28T07:39:02.454Z,393.83
2022-07-28T07:39:47.590Z,391.91
2022-07-28T07:40:32.437Z,370.77
2022-07-28T07:41:17.594Z,372.70
2022-07-28T07:42:02.756Z,377.50
2022-07-28T07:42:47.604Z,381.34
2022-07-28T07:43:32.657Z,381.34
2022-07-28T07:44:17.892Z,374.62
2022-07-28T07:45:03.086Z,365.01
2022-07-28T07:45:47.933Z,372.56
2022-07-28T07:46:32.766Z,386.14
2022-07-28T07:47:17.962Z,386.14
2022-07-28T07:48:03.104Z,369.81
2022-07-28T07:48:48.121Z,373.66
2022-07-28T07:49:45.133Z,384.22
2022-07-28T07:50:18.275Z,380.38
2022-07-28T07:51:03.330Z,365.97
2022-07-28T07:51:48.387Z,387.10
2022-07-28T07:52:33.452Z,387.10
2022-07-28T07:53:18.505Z,375.58
2022-07-28T07:54:03.451Z,389.02
2022-07-28T07:54:48.517Z,376.54
2022-07-28T07:55:37.689Z,375.58
2022-07-28T07:56:18.744Z,381.34
2022-07-28T07:57:04.092Z,381.34
2022-07-28T07:57:48.840Z,379.42
2022-07-28T07:58:33.791Z,356.37
2022-07-28T07:59:18.841Z,369.81
2022-07-28T08:00:03.905Z,370.67
2022-07-28T08:00:49.063Z,381.34
2022-07-28T08:01:34.050Z,374.62
2022-07-28T08:02:19.074Z,375.58
2022-07-28T08:03:04.231Z,383.26
2022-07-28T08:03:50.200Z,375.40
2022-07-28T08:04:37.754Z,375.58
2022-07-28T08:05:19.300Z,398.63
2022-07-28T08:06:04.767Z,392.87
2022-07-28T08:06:49.412Z,370.77
2022-07-28T08:07:34.375Z,382.30
2022-07-28T08:09:04.580Z,384.22
2022-07-28T08:09:49.530Z,378.46
2022-07-28T08:10:34.589Z,370.77
2022-07-28T08:11:19.749Z,393.83
2022-07-28T08:12:04.911Z,369.81
2022-07-28T08:12:49.865Z,378.46
2022-07-28T08:13:34.828Z,369.81
2022-07-28T08:14:19.812Z,369.81
2022-07-28T08:15:05.309Z,381.34
2022-07-28T08:15:50.161Z,369.81
2022-07-28T08:16:35.326Z,372.70
2022-07-28T08:17:23.670Z,372.70
2022-07-28T08:18:05.149Z,371.73
2022-07-28T08:18:50.338Z,379.42
2022-07-28T08:19:35.371Z,379.42
2022-07-28T08:21:05.479Z,384.22
2022-07-28T08:21:50.434Z,375.58
2022-07-28T08:22:35.491Z,379.42
2022-07-28T08:23:24.377Z,364.05
2022-07-28T08:24:05.616Z,365.97
2022-07-28T08:24:50.656Z,371.73
2022-07-28T08:25:35.723Z,365.97
2022-07-28T08:26:20.770Z,366.93
2022-07-28T08:27:05.940Z,390.95
2022-07-28T08:27:50.999Z,387.10
2022-07-28T08:28:35.942Z,376.54
2022-07-28T08:29:20.997Z,367.89
2022-07-28T08:30:06.051Z,369.81
2022-07-28T08:30:51.126Z,368.85
2022-07-28T08:31:36.244Z,381.34
2022-07-28T08:32:21.225Z,377.50
2022-07-28T08:33:06.286Z,357.33
2022-07-28T08:33:54.137Z,396.71
2022-07-28T08:34:36.354Z,364.05
2022-07-28T08:35:32.926Z,352.52
2022-07-28T08:36:06.406Z,376.54
2022-07-28T08:36:51.356Z,363.09
2022-07-28T08:37:36.623Z,377.50
2022-07-28T08:38:21.685Z,370.77
2022-07-28T08:39:06.627Z,376.54
2022-07-28T08:39:51.687Z,365.97
2022-07-28T08:40:36.740Z,376.54
2022-07-28T08:41:21.817Z,389.99
2022-07-28T08:42:06.866Z,387.10
2022-07-28T08:42:51.809Z,369.81
2022-07-28T08:43:36.970Z,375.58
2022-07-28T08:44:22.030Z,356.37
2022-07-28T08:45:07.083Z,378.46
2022-07-28T08:45:56.222Z,370.77
2022-07-28T08:46:37.272Z,381.34
2022-07-28T08:47:22.145Z,368.85
2022-07-28T08:48:08.627Z,354.44
2022-07-28T08:48:52.419Z,347.98
2022-07-28T08:49:39.337Z,342.92
2022-07-28T08:50:22.482Z,363.11
2022-07-28T08:51:07.438Z,387.10
2022-07-28T08:51:52.484Z,374.62
2022-07-28T08:52:37.545Z,362.13
2022-07-28T08:53:22.701Z,375.58
2022-07-28T08:54:07.576Z,346.76
2022-07-28T08:54:52.713Z,375.58
2022-07-28T08:55:37.774Z,379.42
2022-07-28T08:56:22.810Z,375.40
2022-07-28T08:57:07.883Z,350.60
2022-07-28T08:57:52.831Z,367.83
2022-07-28T08:58:37.998Z,370.77
2022-07-28T08:59:23.191Z,352.52
2022-07-28T09:00:07.910Z,368.78
2022-07-28T09:00:53.071Z,382.30
2022-07-28T09:01:39.281Z,359.32
2022-07-28T09:02:23.330Z,373.66
2022-07-28T09:03:08.284Z,363.09
2022-07-28T09:03:53.328Z,373.66
2022-07-28T09:04:38.132Z,372.70
2022-07-28T09:05:23.419Z,371.73
2022-07-28T09:06:08.462Z,369.81
2022-07-28T09:06:53.552Z,386.14
2022-07-28T09:07:38.568Z,361.17
2022-07-28T09:08:23.641Z,374.62
2022-07-28T09:09:08.780Z,386.14
2022-07-28T09:10:02.283Z,379.42
2022-07-28T09:10:38.790Z,370.77
2022-07-28T09:11:23.863Z,355.54
2022-07-28T09:12:08.917Z,368.85
2022-07-28T09:12:53.965Z,352.52
2022-07-28T09:13:39.024Z,372.70
2022-07-28T09:14:24.179Z,357.43
2022-07-28T09:15:09.137Z,377.50
2022-07-28T09:15:54.300Z,372.70
2022-07-28T09:16:39.246Z,379.18
2022-07-28T09:17:24.346Z,389.02
2022-07-28T09:18:09.255Z,377.29
2022-07-28T09:18:54.413Z,374.62
2022-07-28T09:19:39.574Z,373.66
2022-07-28T09:20:25.130Z,371.73
2022-07-28T09:21:09.377Z,389.02
2022-07-28T09:21:54.642Z,378.46
2022-07-28T09:22:39.697Z,371.73
2022-07-28T09:23:42.104Z,359.25